sensor_id;sensor_type;location;lat;lon;timestamp;P1;durP1;ratioP1;P2;durP2;ratioP2
44850;SDS011;30583;48.714;9.386;2024-03-08T00:01:40;28.58;;;18.13;;
44850;SDS011;30583;48.714;9.386;2024-03-08T00:04:06;31.15;;;17.80;;
44850;SDS011;30583;48.714;9.386;2024-03-08T00:06:33;29.50;;;17.60;;
44850;SDS011;30583;48.714;9.386;2024-03-08T00:08:58;28.05;;;17.08;;
44850;SDS011;30583;48.714;9.386;2024-03-08T00:11:24;26.25;;;16.50;;
44850;SDS011;30583;48.714;9.386;2024-03-08T00:13:51;27.77;;;17.23;;
44850;SDS011;30583;48.714;9.386;2024-03-08T00:16:19;28.10;;;16.63;;
44850;SDS011;30583;48.714;9.386;2024-03-08T00:18:45;29.35;;;17.35;;
44850;SDS011;30583;48.714;9.386;2024-03-08T00:21:11;34.15;;;18.17;;
44850;SDS011;30583;48.714;9.386;2024-03-08T00:23:37;28.33;;;18.13;;
44850;SDS011;30583;48.714;9.386;2024-03-08T00:26:03;29.48;;;17.65;;
44850;SDS011;30583;48.714;9.386;2024-03-08T00:28:31;30.88;;;18.23;;
44850;SDS011;30583;48.714;9.386;2024-03-08T00:30:57;25.85;;;16.67;;
44850;SDS011;30583;48.714;9.386;2024-03-08T00:33:22;30.15;;;18.02;;
44850;SDS011;30583;48.714;9.386;2024-03-08T00:35:48;28.60;;;18.05;;
44850;SDS011;30583;48.714;9.386;2024-03-08T00:38:13;28.67;;;17.48;;
44850;SDS011;30583;48.714;9.386;2024-03-08T00:40:39;29.05;;;17.55;;
44850;SDS011;30583;48.714;9.386;2024-03-08T00:43:05;27.83;;;17.30;;
44850;SDS011;30583;48.714;9.386;2024-03-08T00:45:31;28.83;;;18.10;;
44850;SDS011;30583;48.714;9.386;2024-03-08T00:47:56;27.25;;;16.42;;
44850;SDS011;30583;48.714;9.386;2024-03-08T00:50:22;29.17;;;18.17;;
44850;SDS011;30583;48.714;9.386;2024-03-08T00:52:48;28.63;;;17.38;;
44850;SDS011;30583;48.714;9.386;2024-03-08T00:55:13;29.42;;;17.23;;
44850;SDS011;30583;48.714;9.386;2024-03-08T00:57:39;28.52;;;17.42;;
44850;SDS011;30583;48.714;9.386;2024-03-08T01:00:06;27.15;;;16.52;;
44850;SDS011;30583;48.714;9.386;2024-03-08T01:02:37;25.80;;;16.40;;
44850;SDS011;30583;48.714;9.386;2024-03-08T01:05:03;27.88;;;16.60;;
44850;SDS011;30583;48.714;9.386;2024-03-08T01:07:32;29.10;;;17.05;;
44850;SDS011;30583;48.714;9.386;2024-03-08T01:09:59;27.42;;;16.77;;
44850;SDS011;30583;48.714;9.386;2024-03-08T01:12:25;27.88;;;16.13;;
44850;SDS011;30583;48.714;9.386;2024-03-08T01:14:51;25.05;;;15.27;;
44850;SDS011;30583;48.714;9.386;2024-03-08T01:17:17;27.83;;;16.42;;
44850;SDS011;30583;48.714;9.386;2024-03-08T01:19:42;28.70;;;17.52;;
44850;SDS011;30583;48.714;9.386;2024-03-08T01:22:09;29.08;;;17.55;;
44850;SDS011;30583;48.714;9.386;2024-03-08T01:24:35;31.52;;;16.33;;
44850;SDS011;30583;48.714;9.386;2024-03-08T01:27:02;26.98;;;16.52;;
44850;SDS011;30583;48.714;9.386;2024-03-08T01:29:28;28.42;;;16.65;;
44850;SDS011;30583;48.714;9.386;2024-03-08T01:31:54;27.33;;;16.98;;
44850;SDS011;30583;48.714;9.386;2024-03-08T01:34:21;30.67;;;17.63;;
44850;SDS011;30583;48.714;9.386;2024-03-08T01:36:47;29.63;;;17.70;;
44850;SDS011;30583;48.714;9.386;2024-03-08T01:39:13;35.55;;;19.70;;
44850;SDS011;30583;48.714;9.386;2024-03-08T01:41:39;31.80;;;18.30;;
44850;SDS011;30583;48.714;9.386;2024-03-08T01:44:05;27.65;;;16.40;;
44850;SDS011;30583;48.714;9.386;2024-03-08T01:46:32;29.42;;;16.70;;
44850;SDS011;30583;48.714;9.386;2024-03-08T01:48:59;28.10;;;16.38;;
44850;SDS011;30583;48.714;9.386;2024-03-08T01:51:26;28.63;;;15.98;;
44850;SDS011;30583;48.714;9.386;2024-03-08T01:53:53;28.83;;;15.55;;
44850;SDS011;30583;48.714;9.386;2024-03-08T01:56:22;27.15;;;15.82;;
44850;SDS011;30583;48.714;9.386;2024-03-08T01:58:50;29.65;;;16.00;;
44850;SDS011;30583;48.714;9.386;2024-03-08T02:01:16;28.40;;;16.35;;
44850;SDS011;30583;48.714;9.386;2024-03-08T02:03:44;29.92;;;17.05;;
44850;SDS011;30583;48.714;9.386;2024-03-08T02:06:12;28.33;;;15.60;;
44850;SDS011;30583;48.714;9.386;2024-03-08T02:08:42;25.50;;;15.88;;
44850;SDS011;30583;48.714;9.386;2024-03-08T02:11:11;24.75;;;15.60;;
44850;SDS011;30583;48.714;9.386;2024-03-08T02:13:37;25.92;;;14.48;;
44850;SDS011;30583;48.714;9.386;2024-03-08T02:16:03;23.52;;;14.65;;
44850;SDS011;30583;48.714;9.386;2024-03-08T02:18:29;28.27;;;15.75;;
44850;SDS011;30583;48.714;9.386;2024-03-08T02:20:58;26.17;;;15.55;;
44850;SDS011;30583;48.714;9.386;2024-03-08T02:23:24;24.55;;;14.98;;
44850;SDS011;30583;48.714;9.386;2024-03-08T02:25:51;24.35;;;15.07;;
44850;SDS011;30583;48.714;9.386;2024-03-08T02:28:21;27.25;;;16.88;;
44850;SDS011;30583;48.714;9.386;2024-03-08T02:30:48;25.65;;;15.68;;
44850;SDS011;30583;48.714;9.386;2024-03-08T02:33:14;27.65;;;15.95;;
44850;SDS011;30583;48.714;9.386;2024-03-08T02:35:41;23.20;;;14.05;;
44850;SDS011;30583;48.714;9.386;2024-03-08T02:38:10;24.52;;;14.13;;
44850;SDS011;30583;48.714;9.386;2024-03-08T02:40:36;24.23;;;14.90;;
44850;SDS011;30583;48.714;9.386;2024-03-08T02:43:02;25.83;;;15.40;;
44850;SDS011;30583;48.714;9.386;2024-03-08T02:45:30;26.63;;;14.95;;
44850;SDS011;30583;48.714;9.386;2024-03-08T02:47:55;25.52;;;14.65;;
44850;SDS011;30583;48.714;9.386;2024-03-08T02:50:21;24.98;;;14.35;;
44850;SDS011;30583;48.714;9.386;2024-03-08T02:52:47;27.67;;;15.52;;
44850;SDS011;30583;48.714;9.386;2024-03-08T02:55:13;24.42;;;14.50;;
44850;SDS011;30583;48.714;9.386;2024-03-08T02:57:41;25.77;;;14.10;;
44850;SDS011;30583;48.714;9.386;2024-03-08T03:00:08;25.92;;;14.63;;
44850;SDS011;30583;48.714;9.386;2024-03-08T03:02:34;26.17;;;15.07;;
44850;SDS011;30583;48.714;9.386;2024-03-08T03:05:00;24.15;;;14.32;;
44850;SDS011;30583;48.714;9.386;2024-03-08T03:07:34;26.52;;;15.05;;
44850;SDS011;30583;48.714;9.386;2024-03-08T03:10:00;26.13;;;15.40;;
44850;SDS011;30583;48.714;9.386;2024-03-08T03:12:29;26.15;;;14.55;;
44850;SDS011;30583;48.714;9.386;2024-03-08T03:14:56;29.45;;;15.85;;
44850;SDS011;30583;48.714;9.386;2024-03-08T03:17:22;26.23;;;16.10;;
44850;SDS011;30583;48.714;9.386;2024-03-08T03:19:49;27.65;;;16.48;;
44850;SDS011;30583;48.714;9.386;2024-03-08T03:22:15;30.13;;;16.65;;
44850;SDS011;30583;48.714;9.386;2024-03-08T03:24:41;25.67;;;16.10;;
44850;SDS011;30583;48.714;9.386;2024-03-08T03:27:07;22.92;;;14.32;;
44850;SDS011;30583;48.714;9.386;2024-03-08T03:29:39;26.05;;;15.43;;
44850;SDS011;30583;48.714;9.386;2024-03-08T03:32:07;28.38;;;15.32;;
44850;SDS011;30583;48.714;9.386;2024-03-08T03:34:33;24.73;;;14.48;;
44850;SDS011;30583;48.714;9.386;2024-03-08T03:37:02;27.15;;;15.10;;
44850;SDS011;30583;48.714;9.386;2024-03-08T03:39:28;24.88;;;15.38;;
44850;SDS011;30583;48.714;9.386;2024-03-08T03:41:59;26.50;;;15.63;;
44850;SDS011;30583;48.714;9.386;2024-03-08T03:44:27;26.73;;;15.40;;
44850;SDS011;30583;48.714;9.386;2024-03-08T03:46:53;26.42;;;15.68;;
44850;SDS011;30583;48.714;9.386;2024-03-08T03:49:18;26.38;;;15.05;;
44850;SDS011;30583;48.714;9.386;2024-03-08T03:51:44;27.92;;;15.45;;
44850;SDS011;30583;48.714;9.386;2024-03-08T03:54:10;29.83;;;16.83;;
44850;SDS011;30583;48.714;9.386;2024-03-08T03:56:36;28.02;;;15.70;;
44850;SDS011;30583;48.714;9.386;2024-03-08T03:59:01;27.58;;;16.23;;
44850;SDS011;30583;48.714;9.386;2024-03-08T04:01:27;26.77;;;16.00;;
44850;SDS011;30583;48.714;9.386;2024-03-08T04:03:54;23.45;;;14.50;;
44850;SDS011;30583;48.714;9.386;2024-03-08T04:06:20;27.27;;;16.83;;
44850;SDS011;30583;48.714;9.386;2024-03-08T04:08:45;29.75;;;17.00;;
44850;SDS011;30583;48.714;9.386;2024-03-08T04:11:11;29.52;;;17.45;;
44850;SDS011;30583;48.714;9.386;2024-03-08T04:13:37;29.48;;;18.10;;
44850;SDS011;30583;48.714;9.386;2024-03-08T04:16:02;35.35;;;19.45;;
44850;SDS011;30583;48.714;9.386;2024-03-08T04:18:32;37.58;;;19.80;;
44850;SDS011;30583;48.714;9.386;2024-03-08T04:21:00;36.88;;;19.45;;
44850;SDS011;30583;48.714;9.386;2024-03-08T04:23:27;30.55;;;17.90;;
44850;SDS011;30583;48.714;9.386;2024-03-08T04:25:53;28.10;;;17.67;;
44850;SDS011;30583;48.714;9.386;2024-03-08T04:28:19;31.25;;;18.30;;
44850;SDS011;30583;48.714;9.386;2024-03-08T04:30:44;28.23;;;17.65;;
44850;SDS011;30583;48.714;9.386;2024-03-08T04:33:11;27.60;;;16.77;;
44850;SDS011;30583;48.714;9.386;2024-03-08T04:35:36;29.73;;;17.27;;
44850;SDS011;30583;48.714;9.386;2024-03-08T04:38:02;29.15;;;16.77;;
44850;SDS011;30583;48.714;9.386;2024-03-08T04:40:30;31.05;;;18.75;;
44850;SDS011;30583;48.714;9.386;2024-03-08T04:42:56;50.15;;;26.50;;
44850;SDS011;30583;48.714;9.386;2024-03-08T04:45:24;70.22;;;36.60;;
44850;SDS011;30583;48.714;9.386;2024-03-08T04:47:51;49.35;;;27.15;;
44850;SDS011;30583;48.714;9.386;2024-03-08T04:50:17;54.10;;;28.35;;
44850;SDS011;30583;48.714;9.386;2024-03-08T04:52:43;50.67;;;25.30;;
44850;SDS011;30583;48.714;9.386;2024-03-08T04:55:09;104.88;;;48.38;;
44850;SDS011;30583;48.714;9.386;2024-03-08T04:57:34;118.85;;;50.67;;
44850;SDS011;30583;48.714;9.386;2024-03-08T05:00:00;103.65;;;46.58;;
44850;SDS011;30583;48.714;9.386;2024-03-08T05:02:35;71.45;;;35.22;;
44850;SDS011;30583;48.714;9.386;2024-03-08T05:05:01;79.20;;;35.88;;
44850;SDS011;30583;48.714;9.386;2024-03-08T05:07:27;84.53;;;40.20;;
44850;SDS011;30583;48.714;9.386;2024-03-08T05:09:52;93.40;;;41.75;;
44850;SDS011;30583;48.714;9.386;2024-03-08T05:12:18;47.60;;;25.15;;
44850;SDS011;30583;48.714;9.386;2024-03-08T05:14:45;73.55;;;32.60;;
44850;SDS011;30583;48.714;9.386;2024-03-08T05:17:14;68.45;;;31.50;;
44850;SDS011;30583;48.714;9.386;2024-03-08T05:19:40;55.40;;;28.08;;
44850;SDS011;30583;48.714;9.386;2024-03-08T05:22:06;35.72;;;20.40;;
44850;SDS011;30583;48.714;9.386;2024-03-08T05:24:31;33.75;;;19.38;;
44850;SDS011;30583;48.714;9.386;2024-03-08T05:26:57;35.22;;;20.23;;
44850;SDS011;30583;48.714;9.386;2024-03-08T05:29:24;37.58;;;20.55;;
44850;SDS011;30583;48.714;9.386;2024-03-08T05:31:50;30.58;;;19.42;;
44850;SDS011;30583;48.714;9.386;2024-03-08T05:34:19;31.92;;;18.13;;
44850;SDS011;30583;48.714;9.386;2024-03-08T05:36:46;29.20;;;17.33;;
44850;SDS011;30583;48.714;9.386;2024-03-08T05:39:14;31.38;;;19.38;;
44850;SDS011;30583;48.714;9.386;2024-03-08T05:41:41;29.60;;;17.40;;
44850;SDS011;30583;48.714;9.386;2024-03-08T05:44:07;35.15;;;19.58;;
44850;SDS011;30583;48.714;9.386;2024-03-08T05:46:36;33.92;;;19.65;;
44850;SDS011;30583;48.714;9.386;2024-03-08T05:49:02;38.60;;;21.02;;
44850;SDS011;30583;48.714;9.386;2024-03-08T05:51:31;34.38;;;19.02;;
44850;SDS011;30583;48.714;9.386;2024-03-08T05:54:01;32.47;;;18.95;;
44850;SDS011;30583;48.714;9.386;2024-03-08T05:56:31;29.63;;;18.00;;
44850;SDS011;30583;48.714;9.386;2024-03-08T05:58:57;32.17;;;20.90;;
44850;SDS011;30583;48.714;9.386;2024-03-08T06:01:25;30.33;;;19.58;;
44850;SDS011;30583;48.714;9.386;2024-03-08T06:03:54;33.08;;;18.90;;
44850;SDS011;30583;48.714;9.386;2024-03-08T06:06:24;28.08;;;17.70;;
44850;SDS011;30583;48.714;9.386;2024-03-08T06:08:51;27.52;;;16.98;;
44850;SDS011;30583;48.714;9.386;2024-03-08T06:11:17;30.77;;;18.77;;
44850;SDS011;30583;48.714;9.386;2024-03-08T06:13:44;30.80;;;19.08;;
44850;SDS011;30583;48.714;9.386;2024-03-08T06:16:10;31.05;;;20.52;;
44850;SDS011;30583;48.714;9.386;2024-03-08T06:18:36;32.30;;;19.02;;
44850;SDS011;30583;48.714;9.386;2024-03-08T06:21:05;28.55;;;18.05;;
44850;SDS011;30583;48.714;9.386;2024-03-08T06:23:37;30.27;;;17.98;;
44850;SDS011;30583;48.714;9.386;2024-03-08T06:26:06;30.23;;;17.77;;
44850;SDS011;30583;48.714;9.386;2024-03-08T06:28:32;32.33;;;19.50;;
44850;SDS011;30583;48.714;9.386;2024-03-08T06:30:59;28.55;;;17.48;;
44850;SDS011;30583;48.714;9.386;2024-03-08T06:33:25;30.15;;;18.92;;
44850;SDS011;30583;48.714;9.386;2024-03-08T06:35:51;30.17;;;18.45;;
44850;SDS011;30583;48.714;9.386;2024-03-08T06:38:17;31.73;;;18.50;;
44850;SDS011;30583;48.714;9.386;2024-03-08T06:40:44;31.20;;;18.52;;
44850;SDS011;30583;48.714;9.386;2024-03-08T06:43:12;30.05;;;19.02;;
44850;SDS011;30583;48.714;9.386;2024-03-08T06:45:40;31.58;;;19.30;;
44850;SDS011;30583;48.714;9.386;2024-03-08T06:48:07;27.92;;;17.67;;
44850;SDS011;30583;48.714;9.386;2024-03-08T06:50:34;28.95;;;17.85;;
44850;SDS011;30583;48.714;9.386;2024-03-08T06:53:01;28.55;;;17.42;;
44850;SDS011;30583;48.714;9.386;2024-03-08T06:55:28;32.55;;;18.67;;
44850;SDS011;30583;48.714;9.386;2024-03-08T06:57:53;29.33;;;18.27;;
44850;SDS011;30583;48.714;9.386;2024-03-08T07:00:19;23.45;;;14.70;;
44850;SDS011;30583;48.714;9.386;2024-03-08T07:02:48;23.00;;;14.23;;
44850;SDS011;30583;48.714;9.386;2024-03-08T07:05:14;21.50;;;13.95;;
44850;SDS011;30583;48.714;9.386;2024-03-08T07:07:41;19.85;;;12.93;;
44850;SDS011;30583;48.714;9.386;2024-03-08T07:10:08;22.13;;;14.95;;
44850;SDS011;30583;48.714;9.386;2024-03-08T07:12:36;24.63;;;16.42;;
44850;SDS011;30583;48.714;9.386;2024-03-08T07:15:05;23.02;;;16.65;;
44850;SDS011;30583;48.714;9.386;2024-03-08T07:17:31;26.55;;;16.38;;
44850;SDS011;30583;48.714;9.386;2024-03-08T07:19:59;25.40;;;16.45;;
44850;SDS011;30583;48.714;9.386;2024-03-08T07:22:32;27.85;;;16.58;;
44850;SDS011;30583;48.714;9.386;2024-03-08T07:24:57;31.35;;;19.63;;
44850;SDS011;30583;48.714;9.386;2024-03-08T07:27:44;27.60;;;17.63;;
44850;SDS011;30583;48.714;9.386;2024-03-08T07:30:11;26.73;;;14.50;;
44850;SDS011;30583;48.714;9.386;2024-03-08T07:32:36;28.50;;;16.52;;
44850;SDS011;30583;48.714;9.386;2024-03-08T07:35:03;30.33;;;16.02;;
44850;SDS011;30583;48.714;9.386;2024-03-08T07:37:29;27.15;;;16.98;;
44850;SDS011;30583;48.714;9.386;2024-03-08T07:39:54;27.23;;;16.90;;
44850;SDS011;30583;48.714;9.386;2024-03-08T07:42:20;27.90;;;17.08;;
44850;SDS011;30583;48.714;9.386;2024-03-08T07:44:47;32.25;;;17.77;;
44850;SDS011;30583;48.714;9.386;2024-03-08T07:47:15;34.85;;;19.30;;
44850;SDS011;30583;48.714;9.386;2024-03-08T07:49:42;29.70;;;17.02;;
44850;SDS011;30583;48.714;9.386;2024-03-08T07:52:09;28.38;;;17.95;;
44850;SDS011;30583;48.714;9.386;2024-03-08T07:54:39;28.40;;;16.38;;
44850;SDS011;30583;48.714;9.386;2024-03-08T07:57:05;34.20;;;19.10;;
44850;SDS011;30583;48.714;9.386;2024-03-08T07:59:31;33.90;;;19.23;;
44850;SDS011;30583;48.714;9.386;2024-03-08T08:01:58;32.60;;;20.13;;
44850;SDS011;30583;48.714;9.386;2024-03-08T08:04:24;29.15;;;17.58;;
44850;SDS011;30583;48.714;9.386;2024-03-08T08:06:50;29.48;;;17.95;;
44850;SDS011;30583;48.714;9.386;2024-03-08T08:09:16;27.92;;;17.23;;
44850;SDS011;30583;48.714;9.386;2024-03-08T08:11:53;30.85;;;18.25;;
44850;SDS011;30583;48.714;9.386;2024-03-08T08:14:21;33.58;;;18.92;;
44850;SDS011;30583;48.714;9.386;2024-03-08T08:16:47;32.33;;;17.45;;
44850;SDS011;30583;48.714;9.386;2024-03-08T08:19:14;29.85;;;17.25;;
44850;SDS011;30583;48.714;9.386;2024-03-08T08:21:40;28.65;;;17.02;;
44850;SDS011;30583;48.714;9.386;2024-03-08T08:24:06;32.30;;;17.10;;
44850;SDS011;30583;48.714;9.386;2024-03-08T08:26:32;29.38;;;18.55;;
44850;SDS011;30583;48.714;9.386;2024-03-08T08:28:59;31.92;;;17.92;;
44850;SDS011;30583;48.714;9.386;2024-03-08T08:31:25;28.95;;;17.10;;
44850;SDS011;30583;48.714;9.386;2024-03-08T08:33:51;30.35;;;18.60;;
44850;SDS011;30583;48.714;9.386;2024-03-08T08:36:22;29.05;;;18.05;;
44850;SDS011;30583;48.714;9.386;2024-03-08T08:38:48;31.23;;;18.60;;
44850;SDS011;30583;48.714;9.386;2024-03-08T08:41:14;32.33;;;20.33;;
44850;SDS011;30583;48.714;9.386;2024-03-08T08:43:42;31.60;;;18.50;;
44850;SDS011;30583;48.714;9.386;2024-03-08T08:46:09;29.25;;;18.17;;
44850;SDS011;30583;48.714;9.386;2024-03-08T08:48:38;29.27;;;17.42;;
44850;SDS011;30583;48.714;9.386;2024-03-08T08:51:11;27.45;;;16.73;;
44850;SDS011;30583;48.714;9.386;2024-03-08T08:53:37;31.05;;;19.27;;
44850;SDS011;30583;48.714;9.386;2024-03-08T08:56:08;28.98;;;17.10;;
44850;SDS011;30583;48.714;9.386;2024-03-08T08:58:33;34.83;;;20.08;;
44850;SDS011;30583;48.714;9.386;2024-03-08T09:00:59;30.30;;;17.20;;
44850;SDS011;30583;48.714;9.386;2024-03-08T09:03:26;30.27;;;17.73;;
44850;SDS011;30583;48.714;9.386;2024-03-08T09:05:53;31.73;;;18.63;;
44850;SDS011;30583;48.714;9.386;2024-03-08T09:08:18;28.40;;;16.27;;
44850;SDS011;30583;48.714;9.386;2024-03-08T09:10:44;29.45;;;16.92;;
44850;SDS011;30583;48.714;9.386;2024-03-08T09:13:12;29.55;;;16.58;;
44850;SDS011;30583;48.714;9.386;2024-03-08T09:15:38;29.10;;;17.35;;
44850;SDS011;30583;48.714;9.386;2024-03-08T09:18:05;30.15;;;17.00;;
44850;SDS011;30583;48.714;9.386;2024-03-08T09:20:31;26.67;;;16.33;;
44850;SDS011;30583;48.714;9.386;2024-03-08T09:22:57;26.98;;;16.55;;
44850;SDS011;30583;48.714;9.386;2024-03-08T09:25:23;28.58;;;16.65;;
44850;SDS011;30583;48.714;9.386;2024-03-08T09:27:48;30.10;;;16.98;;
44850;SDS011;30583;48.714;9.386;2024-03-08T09:30:14;32.58;;;17.90;;
44850;SDS011;30583;48.714;9.386;2024-03-08T09:32:40;27.10;;;15.50;;
44850;SDS011;30583;48.714;9.386;2024-03-08T09:35:06;25.30;;;15.32;;
44850;SDS011;30583;48.714;9.386;2024-03-08T09:37:33;28.50;;;16.23;;
44850;SDS011;30583;48.714;9.386;2024-03-08T09:39:59;27.10;;;16.40;;
44850;SDS011;30583;48.714;9.386;2024-03-08T09:42:25;28.23;;;17.42;;
44850;SDS011;30583;48.714;9.386;2024-03-08T09:44:51;28.80;;;16.77;;
44850;SDS011;30583;48.714;9.386;2024-03-08T09:47:17;27.77;;;16.13;;
44850;SDS011;30583;48.714;9.386;2024-03-08T09:49:43;26.85;;;16.75;;
44850;SDS011;30583;48.714;9.386;2024-03-08T09:52:09;27.55;;;15.60;;
44850;SDS011;30583;48.714;9.386;2024-03-08T09:54:37;31.90;;;16.30;;
44850;SDS011;30583;48.714;9.386;2024-03-08T09:57:04;29.02;;;15.45;;
44850;SDS011;30583;48.714;9.386;2024-03-08T09:59:33;29.05;;;17.15;;
44850;SDS011;30583;48.714;9.386;2024-03-08T10:01:58;30.20;;;17.85;;
44850;SDS011;30583;48.714;9.386;2024-03-08T10:04:24;29.02;;;17.83;;
44850;SDS011;30583;48.714;9.386;2024-03-08T10:06:53;31.77;;;18.17;;
44850;SDS011;30583;48.714;9.386;2024-03-08T10:09:19;27.70;;;16.77;;
44850;SDS011;30583;48.714;9.386;2024-03-08T10:11:45;34.40;;;17.58;;
44850;SDS011;30583;48.714;9.386;2024-03-08T10:14:11;28.70;;;17.52;;
44850;SDS011;30583;48.714;9.386;2024-03-08T10:16:38;27.90;;;16.08;;
44850;SDS011;30583;48.714;9.386;2024-03-08T10:19:04;27.63;;;15.77;;
44850;SDS011;30583;48.714;9.386;2024-03-08T10:21:31;27.67;;;15.00;;
44850;SDS011;30583;48.714;9.386;2024-03-08T10:23:57;30.38;;;16.23;;
44850;SDS011;30583;48.714;9.386;2024-03-08T10:26:24;30.52;;;17.25;;
44850;SDS011;30583;48.714;9.386;2024-03-08T10:28:51;27.08;;;16.75;;
44850;SDS011;30583;48.714;9.386;2024-03-08T10:31:17;26.83;;;16.17;;
44850;SDS011;30583;48.714;9.386;2024-03-08T10:33:44;29.95;;;17.67;;
44850;SDS011;30583;48.714;9.386;2024-03-08T10:36:11;25.48;;;15.93;;
44850;SDS011;30583;48.714;9.386;2024-03-08T10:38:39;28.90;;;15.90;;
44850;SDS011;30583;48.714;9.386;2024-03-08T10:41:06;26.17;;;14.95;;
44850;SDS011;30583;48.714;9.386;2024-03-08T10:44:25;24.98;;;15.18;;
44850;SDS011;30583;48.714;9.386;2024-03-08T10:46:42;26.80;;;15.30;;
44850;SDS011;30583;48.714;9.386;2024-03-08T10:49:30;26.27;;;16.88;;
44850;SDS011;30583;48.714;9.386;2024-03-08T10:52:01;27.27;;;15.48;;
44850;SDS011;30583;48.714;9.386;2024-03-08T10:54:29;34.15;;;19.15;;
44850;SDS011;30583;48.714;9.386;2024-03-08T10:56:56;29.48;;;15.90;;
44850;SDS011;30583;48.714;9.386;2024-03-08T10:59:23;25.95;;;15.57;;
44850;SDS011;30583;48.714;9.386;2024-03-08T11:01:49;28.15;;;16.77;;
44850;SDS011;30583;48.714;9.386;2024-03-08T11:04:16;28.13;;;16.13;;
44850;SDS011;30583;48.714;9.386;2024-03-08T11:06:45;27.30;;;16.40;;
44850;SDS011;30583;48.714;9.386;2024-03-08T11:14:47;27.33;;;15.63;;
44850;SDS011;30583;48.714;9.386;2024-03-08T11:17:59;32.22;;;17.90;;
44850;SDS011;30583;48.714;9.386;2024-03-08T11:20:02;29.25;;;15.95;;
44850;SDS011;30583;48.714;9.386;2024-03-08T11:22:50;25.02;;;15.48;;
44850;SDS011;30583;48.714;9.386;2024-03-08T11:25:33;28.33;;;16.20;;
44850;SDS011;30583;48.714;9.386;2024-03-08T11:28:14;28.35;;;16.55;;
44850;SDS011;30583;48.714;9.386;2024-03-08T11:30:45;30.27;;;16.55;;
44850;SDS011;30583;48.714;9.386;2024-03-08T11:33:16;29.73;;;16.77;;
44850;SDS011;30583;48.714;9.386;2024-03-08T11:35:42;27.88;;;16.08;;
44850;SDS011;30583;48.714;9.386;2024-03-08T11:38:10;25.50;;;15.68;;
44850;SDS011;30583;48.714;9.386;2024-03-08T11:40:38;33.17;;;17.38;;
44850;SDS011;30583;48.714;9.386;2024-03-08T11:43:05;28.23;;;16.02;;
44850;SDS011;30583;48.714;9.386;2024-03-08T11:45:32;28.17;;;16.98;;
44850;SDS011;30583;48.714;9.386;2024-03-08T11:48:01;28.98;;;17.20;;
44850;SDS011;30583;48.714;9.386;2024-03-08T11:50:30;28.65;;;16.88;;
44850;SDS011;30583;48.714;9.386;2024-03-08T11:53:00;24.67;;;15.02;;
44850;SDS011;30583;48.714;9.386;2024-03-08T11:55:28;28.65;;;16.90;;
44850;SDS011;30583;48.714;9.386;2024-03-08T11:58:03;26.55;;;15.57;;
44850;SDS011;30583;48.714;9.386;2024-03-08T12:00:30;27.75;;;16.40;;
44850;SDS011;30583;48.714;9.386;2024-03-08T12:03:06;29.77;;;16.73;;
44850;SDS011;30583;48.714;9.386;2024-03-08T12:05:34;28.88;;;16.45;;
44850;SDS011;30583;48.714;9.386;2024-03-08T12:08:01;31.83;;;16.63;;
44850;SDS011;30583;48.714;9.386;2024-03-08T12:10:27;25.95;;;16.60;;
44850;SDS011;30583;48.714;9.386;2024-03-08T12:12:54;23.10;;;14.07;;
44850;SDS011;30583;48.714;9.386;2024-03-08T12:15:26;24.95;;;15.35;;
44850;SDS011;30583;48.714;9.386;2024-03-08T12:17:53;24.77;;;15.18;;
44850;SDS011;30583;48.714;9.386;2024-03-08T12:20:27;25.40;;;14.75;;
44850;SDS011;30583;48.714;9.386;2024-03-08T12:22:57;23.75;;;16.10;;
44850;SDS011;30583;48.714;9.386;2024-03-08T12:25:32;28.02;;;16.88;;
44850;SDS011;30583;48.714;9.386;2024-03-08T12:28:07;26.25;;;16.23;;
44850;SDS011;30583;48.714;9.386;2024-03-08T12:30:51;26.83;;;15.75;;
44850;SDS011;30583;48.714;9.386;2024-03-08T12:33:22;27.67;;;16.83;;
44850;SDS011;30583;48.714;9.386;2024-03-08T12:35:54;26.88;;;16.33;;
44850;SDS011;30583;48.714;9.386;2024-03-08T12:38:21;25.55;;;16.92;;
44850;SDS011;30583;48.714;9.386;2024-03-08T12:40:50;26.33;;;16.27;;
44850;SDS011;30583;48.714;9.386;2024-03-08T12:43:19;29.48;;;17.88;;
44850;SDS011;30583;48.714;9.386;2024-03-08T12:45:45;27.13;;;16.98;;
44850;SDS011;30583;48.714;9.386;2024-03-08T12:48:15;27.98;;;16.73;;
44850;SDS011;30583;48.714;9.386;2024-03-08T12:50:41;30.00;;;16.58;;
44850;SDS011;30583;48.714;9.386;2024-03-08T12:53:10;26.88;;;16.98;;
44850;SDS011;30583;48.714;9.386;2024-03-08T12:55:36;29.38;;;17.77;;
44850;SDS011;30583;48.714;9.386;2024-03-08T12:58:01;30.80;;;17.88;;
44850;SDS011;30583;48.714;9.386;2024-03-08T13:00:27;32.35;;;19.08;;
44850;SDS011;30583;48.714;9.386;2024-03-08T13:02:53;30.00;;;17.25;;
44850;SDS011;30583;48.714;9.386;2024-03-08T13:05:19;24.67;;;16.00;;
44850;SDS011;30583;48.714;9.386;2024-03-08T13:07:45;28.80;;;16.33;;
44850;SDS011;30583;48.714;9.386;2024-03-08T13:10:14;26.73;;;15.93;;
44850;SDS011;30583;48.714;9.386;2024-03-08T13:12:43;29.92;;;17.13;;
44850;SDS011;30583;48.714;9.386;2024-03-08T13:15:09;26.20;;;15.65;;
44850;SDS011;30583;48.714;9.386;2024-03-08T13:17:40;24.90;;;15.38;;
44850;SDS011;30583;48.714;9.386;2024-03-08T13:20:06;23.50;;;15.68;;
44850;SDS011;30583;48.714;9.386;2024-03-08T13:22:33;24.58;;;15.80;;
44850;SDS011;30583;48.714;9.386;2024-03-08T13:24:58;26.70;;;15.48;;
44850;SDS011;30583;48.714;9.386;2024-03-08T13:27:26;25.10;;;15.85;;
44850;SDS011;30583;48.714;9.386;2024-03-08T13:29:52;26.58;;;16.15;;
44850;SDS011;30583;48.714;9.386;2024-03-08T13:32:18;26.35;;;15.27;;
44850;SDS011;30583;48.714;9.386;2024-03-08T13:34:45;27.48;;;15.82;;
44850;SDS011;30583;48.714;9.386;2024-03-08T13:37:19;28.05;;;17.50;;
44850;SDS011;30583;48.714;9.386;2024-03-08T13:39:44;26.35;;;16.90;;
44850;SDS011;30583;48.714;9.386;2024-03-08T13:42:13;23.20;;;14.45;;
44850;SDS011;30583;48.714;9.386;2024-03-08T13:44:44;26.33;;;16.08;;
44850;SDS011;30583;48.714;9.386;2024-03-08T13:47:14;25.73;;;15.18;;
44850;SDS011;30583;48.714;9.386;2024-03-08T13:49:40;25.02;;;15.52;;
44850;SDS011;30583;48.714;9.386;2024-03-08T13:52:06;26.58;;;15.65;;
44850;SDS011;30583;48.714;9.386;2024-03-08T13:54:33;26.30;;;16.58;;
44850;SDS011;30583;48.714;9.386;2024-03-08T13:57:00;26.52;;;16.52;;
44850;SDS011;30583;48.714;9.386;2024-03-08T13:59:28;25.13;;;15.40;;
44850;SDS011;30583;48.714;9.386;2024-03-08T14:01:58;26.25;;;16.05;;
44850;SDS011;30583;48.714;9.386;2024-03-08T14:04:25;26.55;;;16.80;;
44850;SDS011;30583;48.714;9.386;2024-03-08T14:06:52;27.38;;;16.75;;
44850;SDS011;30583;48.714;9.386;2024-03-08T14:09:21;27.58;;;16.02;;
44850;SDS011;30583;48.714;9.386;2024-03-08T14:11:54;27.25;;;15.82;;
44850;SDS011;30583;48.714;9.386;2024-03-08T14:14:23;26.17;;;16.77;;
44850;SDS011;30583;48.714;9.386;2024-03-08T14:16:51;25.25;;;16.58;;
44850;SDS011;30583;48.714;9.386;2024-03-08T14:19:19;26.83;;;16.67;;
44850;SDS011;30583;48.714;9.386;2024-03-08T14:21:45;27.65;;;17.45;;
44850;SDS011;30583;48.714;9.386;2024-03-08T14:24:12;25.48;;;16.13;;
44850;SDS011;30583;48.714;9.386;2024-03-08T14:26:37;27.08;;;16.60;;
44850;SDS011;30583;48.714;9.386;2024-03-08T14:29:03;27.70;;;16.27;;